createdAt,value
2022-07-29T00:00:03.043Z,3.83
2022-07-29T00:02:33.179Z,4.03
2022-07-29T00:05:00.354Z,4.05
2022-07-29T00:07:27.690Z,4.05
2022-07-29T00:09:54.608Z,3.47
2022-07-29T00:12:25.269Z,3.97
2022-07-29T00:14:55.348Z,3.90
2022-07-29T00:17:23.431Z,3.50
2022-07-29T00:19:50.308Z,3.45
2022-07-29T00:22:17.235Z,3.15
2022-07-29T00:24:44.144Z,3.33
2022-07-29T00:27:11.041Z,3.42
2022-07-29T00:29:37.863Z,3.70
2022-07-29T00:32:04.907Z,3.50
2022-07-29T00:34:51.139Z,3.58
2022-07-29T00:37:17.989Z,3.45
2022-07-29T00:39:44.814Z,3.50
2022-07-29T00:42:11.747Z,3.25
2022-07-29T00:44:40.515Z,3.28
2022-07-29T00:47:08.456Z,3.22
2022-07-29T00:49:36.001Z,3.30
2022-07-29T00:52:04.890Z,3.47
2022-07-29T00:54:31.964Z,3.35
2022-07-29T00:57:02.252Z,3.20
2022-07-29T00:59:34.437Z,3.50
2022-07-29T01:02:04.150Z,2.80
2022-07-29T01:04:32.439Z,3.13
2022-07-29T01:07:01.281Z,3.28
2022-07-29T01:09:36.012Z,3.13
2022-07-29T01:12:19.873Z,3.20
2022-07-29T01:14:48.804Z,3.42
2022-07-29T01:17:24.282Z,3.40
2022-07-29T01:20:00.671Z,3.35
2022-07-29T01:22:52.692Z,3.10
2022-07-29T01:25:56.175Z,3.05
2022-07-29T01:28:50.278Z,3.30
2022-07-29T01:31:25.159Z,3.08
2022-07-29T01:34:03.269Z,3.15
2022-07-29T01:36:36.156Z,3.22
2022-07-29T01:39:31.027Z,3.17
2022-07-29T01:42:45.053Z,3.30
2022-07-29T01:45:18.193Z,3.30
2022-07-29T01:47:51.717Z,3.55
2022-07-29T01:50:22.314Z,3.40
2022-07-29T01:53:01.366Z,3.22
2022-07-29T01:55:32.087Z,3.58
2022-07-29T01:58:00.200Z,3.40
2022-07-29T02:00:28.578Z,3.25
2022-07-29T02:02:57.111Z,3.75
2022-07-29T02:05:28.290Z,3.30
2022-07-29T02:07:56.839Z,3.80
2022-07-29T02:10:26.360Z,3.13
2022-07-29T02:12:56.097Z,3.22
2022-07-29T02:15:25.337Z,3.10
2022-07-29T02:17:59.248Z,3.40
2022-07-29T02:20:27.608Z,3.17
2022-07-29T02:22:56.598Z,3.28
2022-07-29T02:25:25.437Z,3.05
2022-07-29T02:28:07.640Z,3.30
2022-07-29T02:30:38.980Z,3.25
2022-07-29T02:33:08.819Z,3.20
2022-07-29T02:35:35.863Z,3.40
2022-07-29T02:38:22.811Z,3.20
2022-07-29T02:40:51.602Z,3.35
2022-07-29T02:43:19.953Z,3.50
2022-07-29T02:45:52.045Z,3.40
2022-07-29T02:48:23.521Z,3.20
2022-07-29T02:50:56.607Z,3.25
2022-07-29T02:53:29.550Z,3.30
2022-07-29T02:56:07.842Z,3.40
2022-07-29T02:58:43.592Z,3.42
2022-07-29T03:01:21.987Z,3.40
2022-07-29T03:03:51.803Z,3.28
2022-07-29T03:06:30.904Z,3.30
2022-07-29T03:09:12.893Z,3.47
2022-07-29T03:11:49.452Z,3.78
2022-07-29T03:14:21.614Z,3.42
2022-07-29T03:16:49.934Z,3.45
2022-07-29T03:19:18.242Z,3.40
2022-07-29T03:21:45.078Z,3.40
2022-07-29T03:24:24.872Z,3.05
2022-07-29T03:26:51.894Z,4.07
2022-07-29T03:29:18.691Z,3.97
2022-07-29T03:31:46.988Z,3.67
2022-07-29T03:34:15.646Z,4.20
2022-07-29T03:36:42.778Z,3.80
2022-07-29T03:39:11.626Z,4.07
2022-07-29T03:41:40.471Z,4.15
2022-07-29T03:44:08.817Z,3.80
2022-07-29T03:46:38.255Z,4.00
2022-07-29T03:49:06.058Z,3.78
2022-07-29T03:51:33.694Z,4.28
2022-07-29T03:54:07.880Z,4.13
2022-07-29T03:56:40.841Z,4.13
2022-07-29T03:59:08.691Z,3.88
2022-07-29T04:01:37.437Z,3.72
2022-07-29T04:04:05.639Z,3.60
2022-07-29T04:06:44.482Z,3.60
2022-07-29T04:09:13.132Z,3.47
2022-07-29T04:12:01.510Z,3.47
2022-07-29T04:14:28.703Z,3.72
2022-07-29T04:16:56.258Z,3.92
2022-07-29T04:19:23.577Z,3.78
2022-07-29T04:21:50.534Z,3.47
2022-07-29T04:24:18.175Z,3.80
2022-07-29T04:26:47.848Z,3.55
2022-07-29T04:29:15.368Z,3.60
2022-07-29T04:31:43.469Z,3.28
2022-07-29T04:34:11.364Z,3.53
2022-07-29T04:36:38.332Z,3.63
2022-07-29T04:39:05.597Z,3.50
2022-07-29T04:41:33.723Z,3.72
2022-07-29T04:44:07.155Z,3.60
2022-07-29T04:46:35.696Z,3.55
2022-07-29T04:49:04.058Z,3.33
2022-07-29T04:51:31.092Z,3.50
2022-07-29T04:53:57.905Z,3.47
2022-07-29T04:56:25.001Z,3.28
2022-07-29T04:58:52.163Z,3.33
2022-07-29T05:01:19.319Z,3.20
2022-07-29T05:03:46.506Z,3.40
2022-07-29T05:06:13.382Z,3.35
2022-07-29T05:08:41.889Z,3.40
2022-07-29T05:11:12.224Z,3.70
2022-07-29T05:13:46.167Z,3.58
2022-07-29T05:16:14.817Z,3.25
2022-07-29T05:18:42.361Z,3.40
2022-07-29T05:21:09.185Z,3.30
2022-07-29T05:23:36.057Z,3.28
2022-07-29T05:26:03.016Z,3.40
2022-07-29T05:28:29.931Z,3.60
2022-07-29T05:30:57.408Z,3.40
2022-07-29T05:33:35.514Z,3.70
2022-07-29T05:36:07.881Z,3.92
2022-07-29T05:38:38.420Z,3.45
2022-07-29T05:41:06.161Z,3.45
2022-07-29T05:43:33.514Z,3.67
2022-07-29T05:46:00.531Z,3.58
2022-07-29T05:48:27.679Z,3.85
2022-07-29T05:50:54.745Z,3.60
2022-07-29T05:53:21.827Z,3.90
2022-07-29T05:55:49.806Z,3.60
2022-07-29T05:58:16.935Z,4.00
2022-07-29T06:00:43.779Z,3.90
2022-07-29T06:03:10.782Z,3.60
2022-07-29T06:05:37.839Z,3.67
2022-07-29T06:08:08.087Z,3.92
2022-07-29T06:10:38.615Z,3.70
2022-07-29T06:13:05.662Z,4.00
2022-07-29T06:15:32.720Z,3.42
2022-07-29T06:18:01.195Z,3.80
2022-07-29T06:20:32.704Z,4.05
2022-07-29T06:23:00.616Z,3.45
2022-07-29T06:25:30.433Z,3.80
2022-07-29T06:27:58.486Z,3.97
2022-07-29T06:30:25.500Z,3.53
2022-07-29T06:32:52.766Z,3.70
2022-07-29T06:35:38.783Z,3.83
2022-07-29T06:38:09.601Z,3.47
2022-07-29T06:41:08.580Z,3.50
2022-07-29T06:43:52.556Z,3.72
2022-07-29T06:46:23.111Z,3.72
2022-07-29T06:48:51.660Z,3.35
2022-07-29T06:51:21.723Z,3.80
2022-07-29T06:53:58.196Z,3.72
2022-07-29T06:56:27.637Z,3.60
2022-07-29T06:58:54.537Z,3.45
2022-07-29T07:01:21.855Z,3.80
2022-07-29T07:03:48.921Z,3.58
2022-07-29T07:06:15.876Z,3.60
2022-07-29T07:08:42.684Z,4.07
2022-07-29T07:11:09.793Z,3.70
2022-07-29T07:13:37.041Z,3.65
2022-07-29T07:16:04.612Z,4.00
2022-07-29T07:18:31.749Z,4.32
2022-07-29T07:20:59.440Z,3.90
2022-07-29T07:23:26.335Z,3.58
2022-07-29T07:25:53.342Z,3.83
2022-07-29T07:28:24.674Z,3.83
2022-07-29T07:30:52.842Z,3.83
2022-07-29T07:33:20.464Z,4.25
2022-07-29T07:35:47.716Z,4.00
2022-07-29T07:38:14.580Z,4.03
2022-07-29T07:40:42.485Z,4.18
2022-07-29T07:43:09.428Z,4.05
2022-07-29T07:45:38.363Z,4.13
2022-07-29T07:48:05.996Z,3.97
2022-07-29T07:50:33.340Z,4.40
2022-07-29T07:53:00.652Z,4.05
2022-07-29T07:55:27.731Z,4.07
2022-07-29T07:57:55.758Z,4.45
2022-07-29T08:00:23.745Z,4.50
2022-07-29T08:02:51.743Z,4.53
2022-07-29T08:05:19.307Z,4.53
2022-07-29T08:07:47.690Z,4.57
2022-07-29T08:10:38.086Z,4.70
2022-07-29T08:13:06.427Z,5.13
2022-07-29T08:15:33.907Z,5.07
2022-07-29T08:18:06.530Z,5.10
2022-07-29T08:20:36.725Z,4.78
2022-07-29T08:23:05.429Z,5.10
2022-07-29T08:25:32.861Z,4.97
2022-07-29T08:28:01.582Z,4.93
2022-07-29T08:30:28.699Z,4.70
2022-07-29T08:32:56.294Z,5.25
2022-07-29T08:35:25.208Z,5.32
2022-07-29T08:37:53.051Z,5.13
2022-07-29T08:40:32.583Z,5.80
2022-07-29T08:43:10.070Z,6.03
2022-07-29T08:45:48.830Z,5.60
2022-07-29T08:48:21.221Z,5.78
2022-07-29T08:50:52.220Z,6.18
2022-07-29T08:53:19.596Z,6.15
2022-07-29T08:55:48.903Z,6.70
2022-07-29T08:58:17.005Z,6.57
2022-07-29T09:00:51.635Z,7.45
2022-07-29T09:03:21.732Z,7.32
2022-07-29T09:05:49.071Z,6.70
2022-07-29T09:08:17.716Z,7.97
2022-07-29T09:10:45.471Z,7.60
2022-07-29T09:13:12.480Z,7.78
2022-07-29T09:15:39.531Z,6.85
2022-07-29T09:18:06.332Z,7.40
2022-07-29T09:20:51.766Z,7.70
2022-07-29T09:23:24.240Z,7.18
2022-07-29T09:25:51.803Z,7.90
2022-07-29T09:28:19.212Z,7.40
2022-07-29T09:31:00.066Z,8.20
2022-07-29T09:33:35.653Z,7.60
2022-07-29T09:36:12.842Z,8.23
2022-07-29T09:38:39.632Z,8.65
2022-07-29T09:41:09.023Z,9.70
2022-07-29T09:43:35.919Z,9.57
2022-07-29T09:46:13.201Z,9.65
2022-07-29T09:48:42.729Z,9.63
2022-07-29T09:51:23.026Z,9.63
2022-07-29T09:53:53.722Z,9.85
2022-07-29T09:56:20.634Z,10.60
2022-07-29T09:58:47.458Z,9.70
2022-07-29T10:01:15.113Z,10.35
2022-07-29T10:03:52.850Z,11.05
2022-07-29T10:06:19.770Z,11.38
2022-07-29T10:08:47.592Z,10.80
2022-07-29T10:11:16.481Z,11.20
2022-07-29T10:13:45.539Z,12.02
2022-07-29T10:16:13.861Z,11.35
2022-07-29T10:18:43.330Z,11.23
2022-07-29T10:21:11.119Z,11.30
2022-07-29T10:23:50.317Z,11.60
2022-07-29T10:26:18.013Z,11.68
2022-07-29T10:28:45.493Z,11.20
2022-07-29T10:31:21.732Z,11.10
2022-07-29T10:34:24.373Z,11.57
2022-07-29T10:37:11.446Z,11.18
2022-07-29T10:40:25.842Z,10.98
2022-07-29T10:42:56.870Z,11.60
2022-07-29T10:45:24.944Z,11.52
2022-07-29T10:48:05.538Z,11.18
2022-07-29T10:51:04.629Z,10.98
2022-07-29T10:53:50.162Z,11.43
2022-07-29T10:56:34.308Z,11.35
2022-07-29T10:59:27.116Z,11.95
2022-07-29T11:02:35.363Z,10.63
2022-07-29T11:04:50.412Z,11.18
2022-07-29T11:07:17.471Z,11.80
2022-07-29T11:09:46.510Z,11.20
2022-07-29T11:12:39.362Z,11.40
2022-07-29T11:15:09.707Z,11.45
2022-07-29T11:17:54.904Z,11.38
2022-07-29T11:20:36.594Z,11.52
2022-07-29T11:23:25.237Z,11.30
2022-07-29T11:26:14.401Z,11.50
2022-07-29T11:28:53.200Z,12.02
2022-07-29T11:31:33.613Z,11.35
2022-07-29T11:34:20.930Z,11.88
2022-07-29T11:37:06.399Z,11.50
2022-07-29T11:39:36.587Z,12.07
2022-07-29T11:42:32.614Z,12.07
2022-07-29T11:45:43.923Z,11.77
2022-07-29T11:48:29.566Z,11.30
2022-07-29T11:50:59.965Z,11.55
2022-07-29T11:53:28.906Z,11.88
2022-07-29T11:56:00.605Z,11.45
2022-07-29T11:58:29.509Z,11.35
2022-07-29T12:00:57.792Z,12.18
2022-07-29T12:03:33.020Z,11.82
2022-07-29T12:06:03.187Z,13.13
2022-07-29T12:08:30.806Z,12.48
2022-07-29T12:10:58.594Z,13.00
2022-07-29T12:13:37.564Z,12.65
2022-07-29T12:16:05.492Z,12.82
2022-07-29T12:18:33.227Z,12.13
2022-07-29T12:21:05.204Z,12.70
2022-07-29T12:23:35.627Z,12.55
2022-07-29T12:26:07.637Z,12.50
2022-07-29T12:28:39.824Z,11.90
2022-07-29T12:31:13.885Z,11.95
2022-07-29T12:33:40.935Z,12.32
2022-07-29T12:36:12.994Z,12.23
2022-07-29T12:38:44.315Z,11.82
2022-07-29T12:41:11.907Z,11.65
2022-07-29T12:43:53.602Z,11.65
2022-07-29T12:46:20.599Z,11.95
2022-07-29T12:48:55.665Z,11.65
2022-07-29T12:51:32.424Z,11.77
2022-07-29T12:54:16.816Z,11.50
2022-07-29T12:56:45.653Z,11.57
2022-07-29T12:59:23.946Z,12.27
2022-07-29T13:01:53.138Z,11.77
2022-07-29T13:04:27.474Z,11.85
2022-07-29T13:07:07.488Z,10.93
2022-07-29T13:09:43.131Z,11.35
2022-07-29T13:12:11.853Z,10.57
2022-07-29T13:14:49.603Z,10.93
2022-07-29T13:17:17.456Z,10.70
2022-07-29T13:19:47.744Z,10.27
2022-07-29T13:22:16.929Z,10.02
2022-07-29T13:24:50.850Z,10.07
2022-07-29T13:27:19.429Z,9.43
2022-07-29T13:29:47.436Z,9.82
2022-07-29T13:32:14.556Z,10.65
2022-07-29T13:34:41.895Z,10.10
2022-07-29T13:37:08.864Z,9.82
2022-07-29T13:39:35.825Z,9.57
2022-07-29T13:42:02.880Z,10.07
2022-07-29T13:44:29.711Z,11.05
2022-07-29T13:46:57.014Z,10.55
2022-07-29T13:49:23.981Z,10.27
2022-07-29T13:51:51.053Z,10.63
2022-07-29T13:54:17.897Z,10.40
2022-07-29T13:56:44.692Z,10.43
2022-07-29T13:59:14.023Z,9.90
2022-07-29T14:01:43.194Z,11.20
2022-07-29T14:04:14.348Z,10.43
2022-07-29T14:06:41.915Z,10.80
2022-07-29T14:09:11.729Z,10.85
2022-07-29T14:11:39.461Z,10.57
2022-07-29T14:14:06.414Z,10.30
2022-07-29T14:16:33.313Z,10.43
2022-07-29T14:19:00.813Z,10.05
2022-07-29T14:21:27.768Z,10.90
2022-07-29T14:23:55.615Z,10.65
2022-07-29T14:26:24.391Z,10.43
2022-07-29T14:28:51.366Z,10.30
2022-07-29T14:31:18.360Z,10.48
2022-07-29T14:33:46.207Z,9.70
2022-07-29T14:36:16.157Z,9.65
2022-07-29T14:38:42.989Z,10.23
2022-07-29T14:41:10.096Z,10.05
2022-07-29T14:43:37.297Z,10.68
2022-07-29T14:46:08.335Z,10.38
2022-07-29T14:48:36.053Z,9.90
2022-07-29T14:51:04.952Z,9.65
2022-07-29T14:53:32.351Z,8.85
2022-07-29T14:56:10.383Z,9.65
2022-07-29T14:58:50.160Z,10.20
2022-07-29T15:01:19.500Z,10.30
2022-07-29T15:03:46.797Z,10.25
2022-07-29T15:06:13.607Z,9.35
2022-07-29T15:08:40.530Z,9.55
2022-07-29T15:11:07.352Z,9.85
2022-07-29T15:13:34.722Z,10.15
2022-07-29T15:16:01.787Z,10.02
2022-07-29T15:18:28.746Z,10.75
2022-07-29T15:20:55.585Z,10.45
2022-07-29T15:23:22.468Z,10.15
2022-07-29T15:25:49.277Z,10.32
2022-07-29T15:28:16.242Z,10.85
2022-07-29T15:30:43.156Z,10.57
2022-07-29T15:33:10.632Z,10.82
2022-07-29T15:35:40.268Z,10.65
2022-07-29T15:38:08.760Z,10.80
2022-07-29T15:40:37.215Z,10.65
2022-07-29T15:43:07.250Z,10.63
2022-07-29T15:46:06.576Z,10.57
2022-07-29T15:48:33.575Z,10.63
2022-07-29T15:51:01.019Z,10.43
2022-07-29T15:53:28.003Z,10.23
2022-07-29T15:55:54.935Z,10.05
2022-07-29T15:58:22.696Z,9.98
2022-07-29T16:00:50.124Z,10.45
2022-07-29T16:03:17.342Z,10.00
2022-07-29T16:05:44.249Z,10.25
2022-07-29T16:08:11.242Z,9.70
2022-07-29T16:10:38.112Z,9.88
2022-07-29T16:13:04.993Z,9.32
2022-07-29T16:15:31.877Z,9.88
2022-07-29T16:17:58.800Z,9.07
2022-07-29T16:20:25.786Z,9.38
2022-07-29T16:22:53.362Z,9.32
2022-07-29T16:25:20.443Z,9.73
2022-07-29T16:27:47.288Z,10.25
2022-07-29T16:30:14.140Z,10.05
2022-07-29T16:32:41.273Z,10.77
2022-07-29T16:35:08.823Z,10.38
2022-07-29T16:37:37.184Z,9.73
2022-07-29T16:40:06.266Z,10.32
2022-07-29T16:42:48.652Z,10.82
2022-07-29T16:45:17.997Z,10.68
2022-07-29T16:47:47.247Z,10.88
2022-07-29T16:50:14.276Z,10.27
2022-07-29T16:52:41.320Z,10.63
2022-07-29T16:55:08.344Z,10.45
2022-07-29T16:57:35.222Z,10.65
2022-07-29T17:00:02.250Z,10.45
2022-07-29T17:02:29.150Z,10.73
2022-07-29T17:04:56.342Z,10.13
2022-07-29T17:07:23.660Z,9.90
2022-07-29T17:09:55.114Z,9.90
2022-07-29T17:12:22.532Z,10.38
2022-07-29T17:14:49.398Z,10.43
2022-07-29T17:17:20.884Z,10.20
2022-07-29T17:20:05.248Z,10.30
2022-07-29T17:22:32.233Z,10.32
2022-07-29T17:24:59.167Z,9.88
2022-07-29T17:27:27.735Z,10.50
2022-07-29T17:29:54.569Z,10.18
2022-07-29T17:32:22.085Z,10.65
2022-07-29T17:34:48.998Z,11.13
2022-07-29T17:37:15.943Z,10.63
2022-07-29T17:39:43.112Z,10.18
2022-07-29T17:42:11.973Z,10.07
2022-07-29T17:44:39.508Z,11.35
2022-07-29T17:47:07.910Z,10.38
2022-07-29T17:49:42.393Z,10.13
2022-07-29T17:52:09.380Z,9.07
2022-07-29T17:54:36.299Z,9.02
2022-07-29T17:57:03.191Z,9.52
2022-07-29T17:59:30.013Z,9.95
2022-07-29T18:01:56.918Z,10.10
2022-07-29T18:04:23.891Z,10.13
2022-07-29T18:06:51.508Z,9.48
2022-07-29T18:09:18.500Z,9.60
2022-07-29T18:11:46.246Z,8.75
2022-07-29T18:14:13.543Z,10.02
2022-07-29T18:16:40.810Z,9.10
2022-07-29T18:19:07.799Z,9.30
2022-07-29T18:21:42.667Z,9.82
2022-07-29T18:24:22.592Z,9.50
2022-07-29T18:26:49.401Z,9.35
2022-07-29T18:29:16.256Z,9.77
2022-07-29T18:31:43.077Z,9.55
2022-07-29T18:34:09.941Z,10.20
2022-07-29T18:36:37.179Z,10.80
2022-07-29T18:39:04.084Z,10.30
2022-07-29T18:41:31.363Z,9.80
2022-07-29T18:43:58.217Z,10.43
2022-07-29T18:46:25.488Z,11.43
2022-07-29T18:48:52.654Z,10.57
2022-07-29T18:51:19.861Z,10.80
2022-07-29T18:53:46.847Z,11.40
2022-07-29T18:56:13.708Z,11.18
2022-07-29T18:58:40.625Z,12.00
2022-07-29T19:01:07.539Z,10.48
2022-07-29T19:03:34.642Z,10.65
2022-07-29T19:06:01.497Z,9.98
2022-07-29T19:08:28.333Z,9.68
2022-07-29T19:10:55.277Z,10.27
2022-07-29T19:13:22.350Z,9.70
2022-07-29T19:15:49.227Z,10.10
2022-07-29T19:18:16.178Z,11.38
2022-07-29T19:20:43.053Z,11.45
2022-07-29T19:23:09.945Z,11.38
2022-07-29T19:25:37.574Z,11.60
2022-07-29T19:28:20.407Z,11.80
2022-07-29T19:30:47.295Z,11.40
2022-07-29T19:33:17.380Z,12.32
2022-07-29T19:35:45.302Z,11.90
2022-07-29T19:38:12.570Z,12.20
2022-07-29T19:40:39.408Z,12.38
2022-07-29T19:43:50.721Z,12.68
2022-07-29T19:45:53.626Z,12.52
2022-07-29T19:48:20.536Z,12.20
2022-07-29T19:50:47.418Z,12.55
2022-07-29T19:53:14.388Z,12.20
2022-07-29T19:55:42.423Z,12.68
2022-07-29T19:58:09.311Z,12.43
2022-07-29T20:00:36.181Z,11.82
2022-07-29T20:03:04.772Z,11.32
2022-07-29T20:05:31.809Z,10.73
2022-07-29T20:07:58.743Z,10.30
2022-07-29T20:10:25.791Z,11.10
2022-07-29T20:12:53.840Z,10.23
2022-07-29T20:15:22.397Z,10.45
2022-07-29T20:17:51.807Z,10.55
2022-07-29T20:20:23.086Z,10.20
2022-07-29T20:22:49.984Z,8.88
2022-07-29T20:25:16.848Z,8.13
2022-07-29T20:27:43.730Z,8.90
2022-07-29T20:30:13.858Z,8.73
2022-07-29T20:32:41.337Z,8.25
2022-07-29T20:35:09.950Z,7.13
2022-07-29T20:37:52.233Z,7.10
2022-07-29T20:40:24.749Z,7.55
2022-07-29T20:42:51.966Z,7.45
2022-07-29T20:45:20.066Z,7.80
2022-07-29T20:47:47.057Z,8.00
2022-07-29T20:50:13.969Z,7.88
2022-07-29T20:52:41.452Z,8.25
2022-07-29T20:55:09.281Z,7.88
2022-07-29T20:57:38.707Z,7.68
2022-07-29T21:00:08.117Z,6.85
2022-07-29T21:02:35.063Z,8.70
2022-07-29T21:05:02.040Z,8.23
2022-07-29T21:07:28.928Z,8.50
2022-07-29T21:09:55.777Z,7.90
2022-07-29T21:12:22.672Z,8.45
2022-07-29T21:14:49.815Z,8.30
2022-07-29T21:17:19.448Z,8.40
2022-07-29T21:19:52.425Z,8.48
2022-07-29T21:22:21.987Z,8.45
2022-07-29T21:24:50.221Z,8.48
2022-07-29T21:27:38.412Z,8.30
2022-07-29T21:30:07.746Z,8.07
2022-07-29T21:32:34.760Z,7.97
2022-07-29T21:35:01.645Z,7.78
2022-07-29T21:37:28.546Z,7.53
2022-07-29T21:39:55.512Z,8.43
2022-07-29T21:42:22.606Z,8.38
2022-07-29T21:44:49.495Z,8.13
2022-07-29T21:47:16.410Z,8.43
2022-07-29T21:49:43.414Z,8.15
2022-07-29T21:52:10.211Z,7.95
2022-07-29T21:54:38.471Z,9.10
2022-07-29T21:57:05.671Z,8.50
2022-07-29T21:59:32.673Z,9.90
2022-07-29T22:02:01.060Z,10.80
2022-07-29T22:04:29.101Z,12.25
2022-07-29T22:06:56.892Z,11.25
2022-07-29T22:09:24.818Z,14.18
2022-07-29T22:11:51.698Z,9.77
2022-07-29T22:14:18.612Z,10.70
2022-07-29T22:16:46.520Z,9.13
2022-07-29T22:19:14.546Z,8.55
2022-07-29T22:21:41.802Z,8.70
2022-07-29T22:24:10.339Z,8.00
2022-07-29T22:26:38.278Z,9.73
2022-07-29T22:29:05.442Z,7.10
2022-07-29T22:31:32.337Z,5.90
2022-07-29T22:33:59.168Z,6.18
2022-07-29T22:36:26.933Z,6.45
2022-07-29T22:38:53.851Z,7.65
2022-07-29T22:41:20.765Z,8.10
2022-07-29T22:43:47.621Z,8.20
2022-07-29T22:46:14.488Z,8.13
2022-07-29T22:48:41.378Z,8.07
2022-07-29T22:51:08.286Z,8.48
2022-07-29T22:53:36.020Z,7.90
2022-07-29T22:56:03.041Z,8.00
2022-07-29T22:58:29.843Z,7.45
2022-07-29T23:00:56.765Z,8.13
2022-07-29T23:03:23.633Z,7.97
2022-07-29T23:05:51.846Z,9.82
2022-07-29T23:08:19.746Z,9.68
2022-07-29T23:10:46.895Z,10.10
2022-07-29T23:13:13.905Z,11.45
2022-07-29T23:15:41.360Z,10.15
2022-07-29T23:18:08.460Z,12.27
2022-07-29T23:20:35.641Z,12.27
2022-07-29T23:23:02.549Z,13.18
2022-07-29T23:25:29.389Z,12.70
2022-07-29T23:27:56.570Z,13.07
2022-07-29T23:30:23.579Z,12.75
2022-07-29T23:32:50.524Z,12.73
2022-07-29T23:35:17.489Z,13.25
2022-07-29T23:37:44.382Z,13.45
2022-07-29T23:40:14.549Z,11.68
2022-07-29T23:42:42.676Z,12.90
2022-07-29T23:45:11.223Z,9.73
2022-07-29T23:47:38.135Z,11.35
2022-07-29T23:50:06.920Z,9.32
2022-07-29T23:52:33.925Z,11.20
2022-07-29T23:55:36.801Z,12.52
2022-07-29T23:57:49.426Z,13.70
